sensor_id;sensor_type;location;lat;lon;timestamp;temperature;humidity
50907;DHT22;36882;27.680;85.304;2022-09-16T00:00:47;23.30;99.90
50907;DHT22;36882;27.680;85.304;2022-09-16T00:03:16;23.30;99.90
50907;DHT22;36882;27.680;85.304;2022-09-16T00:05:48;23.20;99.90
50907;DHT22;36882;27.680;85.304;2022-09-16T00:08:19;23.30;99.90
50907;DHT22;36882;27.680;85.304;2022-09-16T00:10:50;23.20;99.90
50907;DHT22;36882;27.680;85.304;2022-09-16T00:13:20;23.30;99.90
50907;DHT22;36882;27.680;85.304;2022-09-16T00:15:50;23.30;99.90
50907;DHT22;36882;27.680;85.304;2022-09-16T00:18:20;23.40;99.90
50907;DHT22;36882;27.680;85.304;2022-09-16T00:20:51;23.40;99.90
50907;DHT22;36882;27.680;85.304;2022-09-16T00:23:22;23.40;99.90
50907;DHT22;36882;27.680;85.304;2022-09-16T00:25:53;23.40;99.90
50907;DHT22;36882;27.680;85.304;2022-09-16T00:28:24;23.40;99.90
50907;DHT22;36882;27.680;85.304;2022-09-16T00:30:53;23.40;99.90
50907;DHT22;36882;27.680;85.304;2022-09-16T00:33:23;23.40;99.90
50907;DHT22;36882;27.680;85.304;2022-09-16T00:36:20;23.40;99.90
50907;DHT22;36882;27.680;85.304;2022-09-16T00:38:43;23.40;99.90
50907;DHT22;36882;27.680;85.304;2022-09-16T00:41:17;23.50;99.90
50907;DHT22;36882;27.680;85.304;2022-09-16T00:43:51;23.40;99.90
50907;DHT22;36882;27.680;85.304;2022-09-16T00:46:43;23.40;99.90
50907;DHT22;36882;27.680;85.304;2022-09-16T00:49:20;23.40;99.90
50907;DHT22;36882;27.680;85.304;2022-09-16T00:51:53;23.40;99.90
50907;DHT22;36882;27.680;85.304;2022-09-16T00:54:26;23.40;99.90
50907;DHT22;36882;27.680;85.304;2022-09-16T00:56:58;23.40;99.90
50907;DHT22;36882;27.680;85.304;2022-09-16T00:59:33;23.40;99.90
50907;DHT22;36882;27.680;85.304;2022-09-16T01:02:08;23.50;99.90
50907;DHT22;36882;27.680;85.304;2022-09-16T01:04:48;23.50;99.90
50907;DHT22;36882;27.680;85.304;2022-09-16T01:07:28;23.50;99.90
50907;DHT22;36882;27.680;85.304;2022-09-16T01:09:59;23.60;99.90
50907;DHT22;36882;27.680;85.304;2022-09-16T01:12:30;23.60;99.90
50907;DHT22;36882;27.680;85.304;2022-09-16T01:15:02;23.60;99.90
50907;DHT22;36882;27.680;85.304;2022-09-16T01:20:44;23.70;99.90
50907;DHT22;36882;27.680;85.304;2022-09-16T01:23:52;23.80;99.90
50907;DHT22;36882;27.680;85.304;2022-09-16T01:29:49;23.80;99.90
50907;DHT22;36882;27.680;85.304;2022-09-16T01:32:39;23.80;99.90
50907;DHT22;36882;27.680;85.304;2022-09-16T01:41:27;24.00;99.90
50907;DHT22;36882;27.680;85.304;2022-09-16T01:44:06;24.10;99.90
50907;DHT22;36882;27.680;85.304;2022-09-16T01:46:48;24.20;99.90
50907;DHT22;36882;27.680;85.304;2022-09-16T01:49:36;24.30;99.90
50907;DHT22;36882;27.680;85.304;2022-09-16T01:52:22;24.40;99.90
50907;DHT22;36882;27.680;85.304;2022-09-16T01:55:04;24.40;99.90
50907;DHT22;36882;27.680;85.304;2022-09-16T01:57:58;24.50;99.90
50907;DHT22;36882;27.680;85.304;2022-09-16T02:00:29;24.60;99.90
50907;DHT22;36882;27.680;85.304;2022-09-16T02:03:10;24.70;99.90
50907;DHT22;36882;27.680;85.304;2022-09-16T02:05:54;24.70;99.90
50907;DHT22;36882;27.680;85.304;2022-09-16T02:08:31;24.70;99.90
50907;DHT22;36882;27.680;85.304;2022-09-16T02:11:05;24.80;99.90
50907;DHT22;36882;27.680;85.304;2022-09-16T02:13:42;24.90;99.90
50907;DHT22;36882;27.680;85.304;2022-09-16T02:16:22;25.00;99.90
50907;DHT22;36882;27.680;85.304;2022-09-16T02:18:58;25.10;99.60
50907;DHT22;36882;27.680;85.304;2022-09-16T02:21:32;25.10;99.40
50907;DHT22;36882;27.680;85.304;2022-09-16T02:24:06;25.10;99.30
50907;DHT22;36882;27.680;85.304;2022-09-16T02:26:41;25.10;99.50
50907;DHT22;36882;27.680;85.304;2022-09-16T02:29:20;25.10;99.50
50907;DHT22;36882;27.680;85.304;2022-09-16T02:31:54;25.10;99.80
50907;DHT22;36882;27.680;85.304;2022-09-16T02:34:31;25.10;99.70
50907;DHT22;36882;27.680;85.304;2022-09-16T02:37:15;25.10;99.50
50907;DHT22;36882;27.680;85.304;2022-09-16T02:39:49;25.10;99.40
50907;DHT22;36882;27.680;85.304;2022-09-16T02:42:23;25.10;98.90
50907;DHT22;36882;27.680;85.304;2022-09-16T02:44:54;25.10;99.70
50907;DHT22;36882;27.680;85.304;2022-09-16T02:50:31;25.10;99.50
50907;DHT22;36882;27.680;85.304;2022-09-16T02:53:12;25.10;99.70
50907;DHT22;36882;27.680;85.304;2022-09-16T02:55:55;25.10;99.50
50907;DHT22;36882;27.680;85.304;2022-09-16T02:58:28;25.10;99.40
50907;DHT22;36882;27.680;85.304;2022-09-16T03:00:58;25.10;99.40
50907;DHT22;36882;27.680;85.304;2022-09-16T03:03:29;25.10;99.70
50907;DHT22;36882;27.680;85.304;2022-09-16T03:06:13;25.10;99.60
50907;DHT22;36882;27.680;85.304;2022-09-16T03:08:44;25.10;99.30
50907;DHT22;36882;27.680;85.304;2022-09-16T03:11:33;25.00;99.30
50907;DHT22;36882;27.680;85.304;2022-09-16T03:23:03;25.00;99.30
50907;DHT22;36882;27.680;85.304;2022-09-16T03:25:58;25.00;99.80
50907;DHT22;36882;27.680;85.304;2022-09-16T03:28:41;25.00;99.90
50907;DHT22;36882;27.680;85.304;2022-09-16T03:31:23;25.00;99.90
50907;DHT22;36882;27.680;85.304;2022-09-16T03:34:08;25.00;99.90
50907;DHT22;36882;27.680;85.304;2022-09-16T03:36:45;24.90;99.90
50907;DHT22;36882;27.680;85.304;2022-09-16T03:39:17;25.00;99.90
50907;DHT22;36882;27.680;85.304;2022-09-16T03:41:48;24.90;99.90
50907;DHT22;36882;27.680;85.304;2022-09-16T03:44:18;24.90;99.90
50907;DHT22;36882;27.680;85.304;2022-09-16T03:46:48;24.90;99.90
50907;DHT22;36882;27.680;85.304;2022-09-16T03:49:17;24.90;99.90
50907;DHT22;36882;27.680;85.304;2022-09-16T03:51:46;24.90;99.90
50907;DHT22;36882;27.680;85.304;2022-09-16T03:54:16;24.90;99.90
50907;DHT22;36882;27.680;85.304;2022-09-16T03:56:45;24.90;99.90
50907;DHT22;36882;27.680;85.304;2022-09-16T03:59:18;24.90;99.90
50907;DHT22;36882;27.680;85.304;2022-09-16T04:01:48;24.90;99.90
50907;DHT22;36882;27.680;85.304;2022-09-16T04:04:18;24.90;99.90
50907;DHT22;36882;27.680;85.304;2022-09-16T04:06:48;24.90;99.90
50907;DHT22;36882;27.680;85.304;2022-09-16T04:09:18;24.90;99.90
50907;DHT22;36882;27.680;85.304;2022-09-16T04:11:47;24.90;99.90
50907;DHT22;36882;27.680;85.304;2022-09-16T04:14:18;24.90;99.90
50907;DHT22;36882;27.680;85.304;2022-09-16T04:16:48;24.90;99.90
50907;DHT22;36882;27.680;85.304;2022-09-16T04:19:18;24.80;99.90
50907;DHT22;36882;27.680;85.304;2022-09-16T04:21:48;24.70;99.90
50907;DHT22;36882;27.680;85.304;2022-09-16T04:24:18;24.70;99.90
50907;DHT22;36882;27.680;85.304;2022-09-16T04:26:47;24.70;99.90
50907;DHT22;36882;27.680;85.304;2022-09-16T04:29:17;24.80;99.90
50907;DHT22;36882;27.680;85.304;2022-09-16T04:31:46;24.80;99.90
50907;DHT22;36882;27.680;85.304;2022-09-16T04:34:17;24.70;99.90
50907;DHT22;36882;27.680;85.304;2022-09-16T04:36:47;24.70;99.90
50907;DHT22;36882;27.680;85.304;2022-09-16T04:39:17;24.70;99.90
50907;DHT22;36882;27.680;85.304;2022-09-16T04:41:48;24.70;99.90
50907;DHT22;36882;27.680;85.304;2022-09-16T04:44:18;24.70;99.90
50907;DHT22;36882;27.680;85.304;2022-09-16T04:46:48;24.80;99.90
50907;DHT22;36882;27.680;85.304;2022-09-16T04:49:19;24.70;99.90
50907;DHT22;36882;27.680;85.304;2022-09-16T04:51:49;24.70;99.90
50907;DHT22;36882;27.680;85.304;2022-09-16T04:54:20;24.70;99.90
50907;DHT22;36882;27.680;85.304;2022-09-16T04:56:51;24.70;99.90
50907;DHT22;36882;27.680;85.304;2022-09-16T04:59:22;24.80;99.90
50907;DHT22;36882;27.680;85.304;2022-09-16T05:01:52;24.80;99.90
50907;DHT22;36882;27.680;85.304;2022-09-16T05:04:22;24.90;99.90
50907;DHT22;36882;27.680;85.304;2022-09-16T05:06:53;24.90;99.90
50907;DHT22;36882;27.680;85.304;2022-09-16T05:09:23;25.00;99.90
50907;DHT22;36882;27.680;85.304;2022-09-16T05:11:54;25.10;99.60
50907;DHT22;36882;27.680;85.304;2022-09-16T05:14:25;25.10;99.90
50907;DHT22;36882;27.680;85.304;2022-09-16T05:16:56;25.20;99.90
50907;DHT22;36882;27.680;85.304;2022-09-16T05:19:26;25.30;99.90
50907;DHT22;36882;27.680;85.304;2022-09-16T05:21:57;25.30;99.90
50907;DHT22;36882;27.680;85.304;2022-09-16T05:24:27;25.40;99.90
50907;DHT22;36882;27.680;85.304;2022-09-16T05:26:57;25.50;99.50
50907;DHT22;36882;27.680;85.304;2022-09-16T05:29:28;25.70;99.40
50907;DHT22;36882;27.680;85.304;2022-09-16T05:31:59;25.70;98.70
50907;DHT22;36882;27.680;85.304;2022-09-16T05:34:30;25.80;98.50
50907;DHT22;36882;27.680;85.304;2022-09-16T05:37:00;25.90;99.60
50907;DHT22;36882;27.680;85.304;2022-09-16T05:39:31;25.90;98.70
50907;DHT22;36882;27.680;85.304;2022-09-16T05:42:01;25.90;98.60
50907;DHT22;36882;27.680;85.304;2022-09-16T05:44:33;26.00;99.20
50907;DHT22;36882;27.680;85.304;2022-09-16T05:47:03;26.00;98.60
50907;DHT22;36882;27.680;85.304;2022-09-16T05:49:34;26.10;98.30
50907;DHT22;36882;27.680;85.304;2022-09-16T05:52:04;26.00;98.40
50907;DHT22;36882;27.680;85.304;2022-09-16T05:54:34;26.00;98.20
50907;DHT22;36882;27.680;85.304;2022-09-16T05:57:05;26.00;97.70
50907;DHT22;36882;27.680;85.304;2022-09-16T05:59:35;26.20;98.10
50907;DHT22;36882;27.680;85.304;2022-09-16T06:02:07;26.30;97.70
50907;DHT22;36882;27.680;85.304;2022-09-16T06:04:37;26.30;97.80
50907;DHT22;36882;27.680;85.304;2022-09-16T06:07:08;26.60;97.50
50907;DHT22;36882;27.680;85.304;2022-09-16T06:09:38;26.60;97.90
50907;DHT22;36882;27.680;85.304;2022-09-16T06:12:10;26.60;97.00
50907;DHT22;36882;27.680;85.304;2022-09-16T06:14:40;26.70;97.00
50907;DHT22;36882;27.680;85.304;2022-09-16T06:17:11;26.70;96.30
50907;DHT22;36882;27.680;85.304;2022-09-16T06:19:41;26.80;96.90
50907;DHT22;36882;27.680;85.304;2022-09-16T06:22:11;26.80;97.50
50907;DHT22;36882;27.680;85.304;2022-09-16T06:24:42;26.90;97.00
50907;DHT22;36882;27.680;85.304;2022-09-16T06:27:12;27.00;96.30
50907;DHT22;36882;27.680;85.304;2022-09-16T06:29:43;27.10;95.90
50907;DHT22;36882;27.680;85.304;2022-09-16T06:32:13;27.10;95.60
50907;DHT22;36882;27.680;85.304;2022-09-16T06:34:43;27.20;96.30
50907;DHT22;36882;27.680;85.304;2022-09-16T06:37:14;27.20;97.20
50907;DHT22;36882;27.680;85.304;2022-09-16T06:39:45;27.20;96.70
50907;DHT22;36882;27.680;85.304;2022-09-16T06:42:15;27.40;96.70
50907;DHT22;36882;27.680;85.304;2022-09-16T06:44:45;27.50;95.40
50907;DHT22;36882;27.680;85.304;2022-09-16T06:47:15;27.50;95.30
50907;DHT22;36882;27.680;85.304;2022-09-16T06:49:46;27.60;96.40
50907;DHT22;36882;27.680;85.304;2022-09-16T06:52:16;27.70;96.10
50907;DHT22;36882;27.680;85.304;2022-09-16T06:54:47;27.70;96.20
50907;DHT22;36882;27.680;85.304;2022-09-16T06:57:19;27.80;95.70
50907;DHT22;36882;27.680;85.304;2022-09-16T06:59:52;27.90;96.40
50907;DHT22;36882;27.680;85.304;2022-09-16T07:02:22;28.00;95.60
50907;DHT22;36882;27.680;85.304;2022-09-16T07:04:52;27.90;95.50
50907;DHT22;36882;27.680;85.304;2022-09-16T07:07:23;28.00;95.10
50907;DHT22;36882;27.680;85.304;2022-09-16T07:09:53;28.10;95.40
50907;DHT22;36882;27.680;85.304;2022-09-16T07:12:23;28.20;95.20
50907;DHT22;36882;27.680;85.304;2022-09-16T07:14:54;28.20;95.30
50907;DHT22;36882;27.680;85.304;2022-09-16T07:17:24;28.30;94.30
50907;DHT22;36882;27.680;85.304;2022-09-16T07:19:55;28.30;94.70
50907;DHT22;36882;27.680;85.304;2022-09-16T07:22:30;28.40;95.00
50907;DHT22;36882;27.680;85.304;2022-09-16T07:25:01;28.40;94.40
50907;DHT22;36882;27.680;85.304;2022-09-16T07:27:31;28.60;95.00
50907;DHT22;36882;27.680;85.304;2022-09-16T07:30:01;28.70;93.60
50907;DHT22;36882;27.680;85.304;2022-09-16T07:32:35;28.80;94.30
50907;DHT22;36882;27.680;85.304;2022-09-16T07:35:07;28.70;94.30
50907;DHT22;36882;27.680;85.304;2022-09-16T07:37:37;28.60;93.90
50907;DHT22;36882;27.680;85.304;2022-09-16T07:40:09;28.60;93.80
50907;DHT22;36882;27.680;85.304;2022-09-16T07:42:42;28.60;93.50
50907;DHT22;36882;27.680;85.304;2022-09-16T07:45:12;28.70;93.50
50907;DHT22;36882;27.680;85.304;2022-09-16T07:47:43;28.70;93.40
50907;DHT22;36882;27.680;85.304;2022-09-16T07:50:13;28.50;94.00
50907;DHT22;36882;27.680;85.304;2022-09-16T07:52:44;28.60;93.90
50907;DHT22;36882;27.680;85.304;2022-09-16T07:55:14;28.60;93.90
50907;DHT22;36882;27.680;85.304;2022-09-16T07:57:46;28.60;93.80
50907;DHT22;36882;27.680;85.304;2022-09-16T08:00:19;28.80;93.20
50907;DHT22;36882;27.680;85.304;2022-09-16T08:02:54;28.80;93.50
50907;DHT22;36882;27.680;85.304;2022-09-16T08:05:25;28.80;93.30
50907;DHT22;36882;27.680;85.304;2022-09-16T08:07:56;28.80;93.20
50907;DHT22;36882;27.680;85.304;2022-09-16T08:10:26;28.90;93.60
50907;DHT22;36882;27.680;85.304;2022-09-16T08:19:29;28.80;93.40
50907;DHT22;36882;27.680;85.304;2022-09-16T08:21:59;28.60;94.40
50907;DHT22;36882;27.680;85.304;2022-09-16T08:24:30;28.60;94.30
50907;DHT22;36882;27.680;85.304;2022-09-16T08:27:01;28.60;93.90
50907;DHT22;36882;27.680;85.304;2022-09-16T08:29:31;28.60;94.40
50907;DHT22;36882;27.680;85.304;2022-09-16T08:32:02;28.70;93.80
50907;DHT22;36882;27.680;85.304;2022-09-16T08:34:35;28.60;93.80
50907;DHT22;36882;27.680;85.304;2022-09-16T08:37:07;28.60;93.40
50907;DHT22;36882;27.680;85.304;2022-09-16T08:39:38;28.60;93.60
50907;DHT22;36882;27.680;85.304;2022-09-16T08:45:41;28.50;93.90
50907;DHT22;36882;27.680;85.304;2022-09-16T08:51:22;28.30;93.90
50907;DHT22;36882;27.680;85.304;2022-09-16T08:54:04;28.50;93.90
50907;DHT22;36882;27.680;85.304;2022-09-16T08:56:39;28.60;93.60
50907;DHT22;36882;27.680;85.304;2022-09-16T08:59:17;28.60;93.60
50907;DHT22;36882;27.680;85.304;2022-09-16T09:02:01;28.70;93.90
50907;DHT22;36882;27.680;85.304;2022-09-16T09:04:36;28.70;93.20
50907;DHT22;36882;27.680;85.304;2022-09-16T09:07:23;28.80;93.40
50907;DHT22;36882;27.680;85.304;2022-09-16T09:10:17;28.80;92.70
50907;DHT22;36882;27.680;85.304;2022-09-16T09:12:57;28.90;92.70
50907;DHT22;36882;27.680;85.304;2022-09-16T09:15:45;28.90;92.90
50907;DHT22;36882;27.680;85.304;2022-09-16T09:18:37;28.80;92.50
50907;DHT22;36882;27.680;85.304;2022-09-16T09:24:26;28.90;93.30
50907;DHT22;36882;27.680;85.304;2022-09-16T09:27:04;28.80;93.20
50907;DHT22;36882;27.680;85.304;2022-09-16T09:32:36;28.50;93.20
50907;DHT22;36882;27.680;85.304;2022-09-16T09:38:44;28.20;93.10
50907;DHT22;36882;27.680;85.304;2022-09-16T09:41:33;28.10;93.30
50907;DHT22;36882;27.680;85.304;2022-09-16T09:44:30;28.00;93.60
50907;DHT22;36882;27.680;85.304;2022-09-16T09:47:14;28.00;93.70
50907;DHT22;36882;27.680;85.304;2022-09-16T09:49:50;27.90;94.00
50907;DHT22;36882;27.680;85.304;2022-09-16T09:52:38;27.80;94.20
50907;DHT22;36882;27.680;85.304;2022-09-16T09:55:18;27.80;94.30
50907;DHT22;36882;27.680;85.304;2022-09-16T10:00:51;27.70;93.50
50907;DHT22;36882;27.680;85.304;2022-09-16T10:03:28;27.70;93.80
50907;DHT22;36882;27.680;85.304;2022-09-16T10:05:59;27.60;93.60
50907;DHT22;36882;27.680;85.304;2022-09-16T10:09:00;27.60;93.80
50907;DHT22;36882;27.680;85.304;2022-09-16T10:11:24;27.70;93.60
50907;DHT22;36882;27.680;85.304;2022-09-16T10:13:59;27.70;93.30
50907;DHT22;36882;27.680;85.304;2022-09-16T10:16:37;27.60;93.40
50907;DHT22;36882;27.680;85.304;2022-09-16T10:19:26;27.60;93.60
50907;DHT22;36882;27.680;85.304;2022-09-16T10:22:18;27.60;93.70
50907;DHT22;36882;27.680;85.304;2022-09-16T10:24:55;27.70;93.60
50907;DHT22;36882;27.680;85.304;2022-09-16T10:27:31;27.60;93.30
50907;DHT22;36882;27.680;85.304;2022-09-16T10:30:14;27.70;93.40
50907;DHT22;36882;27.680;85.304;2022-09-16T10:33:04;27.50;93.10
50907;DHT22;36882;27.680;85.304;2022-09-16T10:35:38;27.40;93.30
50907;DHT22;36882;27.680;85.304;2022-09-16T10:38:18;27.40;93.60
50907;DHT22;36882;27.680;85.304;2022-09-16T10:41:05;27.40;93.70
50907;DHT22;36882;27.680;85.304;2022-09-16T10:43:37;27.40;93.90
50907;DHT22;36882;27.680;85.304;2022-09-16T10:46:14;27.30;93.50
50907;DHT22;36882;27.680;85.304;2022-09-16T10:48:45;27.20;93.60
50907;DHT22;36882;27.680;85.304;2022-09-16T10:51:25;27.30;93.80
50907;DHT22;36882;27.680;85.304;2022-09-16T10:54:00;27.40;93.60
50907;DHT22;36882;27.680;85.304;2022-09-16T10:56:45;27.40;94.80
50907;DHT22;36882;27.680;85.304;2022-09-16T10:59:15;27.40;95.50
50907;DHT22;36882;27.680;85.304;2022-09-16T11:02:12;27.50;96.30
50907;DHT22;36882;27.680;85.304;2022-09-16T11:05:11;27.40;96.50
50907;DHT22;36882;27.680;85.304;2022-09-16T11:08:06;27.40;96.70
50907;DHT22;36882;27.680;85.304;2022-09-16T11:11:04;27.30;96.90
50907;DHT22;36882;27.680;85.304;2022-09-16T11:16:58;27.20;96.90
50907;DHT22;36882;27.680;85.304;2022-09-16T11:19:43;27.20;96.90
50907;DHT22;36882;27.680;85.304;2022-09-16T11:25:41;27.10;97.10
50907;DHT22;36882;27.680;85.304;2022-09-16T11:31:26;27.00;97.10
50907;DHT22;36882;27.680;85.304;2022-09-16T11:40:18;27.00;96.90
50907;DHT22;36882;27.680;85.304;2022-09-16T11:46:00;26.80;97.00
50907;DHT22;36882;27.680;85.304;2022-09-16T11:49:28;26.70;97.50
50907;DHT22;36882;27.680;85.304;2022-09-16T12:00:51;26.50;98.00
50907;DHT22;36882;27.680;85.304;2022-09-16T12:03:40;26.60;97.80
50907;DHT22;36882;27.680;85.304;2022-09-16T12:06:17;26.50;98.00
50907;DHT22;36882;27.680;85.304;2022-09-16T12:08:55;26.50;98.00
50907;DHT22;36882;27.680;85.304;2022-09-16T12:11:34;26.40;97.80
50907;DHT22;36882;27.680;85.304;2022-09-16T12:14:28;26.30;98.00
50907;DHT22;36882;27.680;85.304;2022-09-16T12:17:05;26.30;97.90
50907;DHT22;36882;27.680;85.304;2022-09-16T12:19:54;26.30;97.70
50907;DHT22;36882;27.680;85.304;2022-09-16T12:22:35;26.20;97.60
50907;DHT22;36882;27.680;85.304;2022-09-16T12:25:17;26.30;96.50
50907;DHT22;36882;27.680;85.304;2022-09-16T12:27:51;26.20;96.50
50907;DHT22;36882;27.680;85.304;2022-09-16T12:30:36;26.10;95.80
50907;DHT22;36882;27.680;85.304;2022-09-16T12:33:28;26.00;95.90
50907;DHT22;36882;27.680;85.304;2022-09-16T12:36:06;26.00;96.00
50907;DHT22;36882;27.680;85.304;2022-09-16T12:38:37;26.00;95.90
50907;DHT22;36882;27.680;85.304;2022-09-16T12:44:44;25.90;95.40
50907;DHT22;36882;27.680;85.304;2022-09-16T13:02:32;25.70;97.90
50907;DHT22;36882;27.680;85.304;2022-09-16T13:05:19;25.50;98.10
50907;DHT22;36882;27.680;85.304;2022-09-16T13:07:53;25.30;98.10
50907;DHT22;36882;27.680;85.304;2022-09-16T13:10:37;25.30;98.40
50907;DHT22;36882;27.680;85.304;2022-09-16T13:13:35;25.30;98.40
50907;DHT22;36882;27.680;85.304;2022-09-16T13:16:08;25.30;98.60
50907;DHT22;36882;27.680;85.304;2022-09-16T13:18:49;25.30;98.70
50907;DHT22;36882;27.680;85.304;2022-09-16T13:21:27;25.30;98.80
50907;DHT22;36882;27.680;85.304;2022-09-16T13:24:11;25.20;98.90
50907;DHT22;36882;27.680;85.304;2022-09-16T13:26:47;25.20;99.20
50907;DHT22;36882;27.680;85.304;2022-09-16T13:29:41;25.20;99.30
50907;DHT22;36882;27.680;85.304;2022-09-16T13:32:37;25.10;99.40
50907;DHT22;36882;27.680;85.304;2022-09-16T13:35:22;25.10;99.60
50907;DHT22;36882;27.680;85.304;2022-09-16T13:37:56;25.10;99.90
50907;DHT22;36882;27.680;85.304;2022-09-16T13:40:29;25.10;99.70
50907;DHT22;36882;27.680;85.304;2022-09-16T13:43:14;25.10;99.80
50907;DHT22;36882;27.680;85.304;2022-09-16T13:45:45;25.10;99.80
50907;DHT22;36882;27.680;85.304;2022-09-16T13:48:18;25.10;99.60
50907;DHT22;36882;27.680;85.304;2022-09-16T13:50:56;25.20;99.70
50907;DHT22;36882;27.680;85.304;2022-09-16T13:53:31;25.20;99.80
50907;DHT22;36882;27.680;85.304;2022-09-16T13:59:13;25.10;99.70
50907;DHT22;36882;27.680;85.304;2022-09-16T14:08:06;25.10;99.30
50907;DHT22;36882;27.680;85.304;2022-09-16T14:10:55;25.10;99.00
50907;DHT22;36882;27.680;85.304;2022-09-16T14:13:36;25.00;99.10
50907;DHT22;36882;27.680;85.304;2022-09-16T14:16:21;25.10;99.30
50907;DHT22;36882;27.680;85.304;2022-09-16T14:22:15;25.10;99.20
50907;DHT22;36882;27.680;85.304;2022-09-16T14:24:46;25.00;99.30
50907;DHT22;36882;27.680;85.304;2022-09-16T14:27:34;25.00;99.50
50907;DHT22;36882;27.680;85.304;2022-09-16T14:30:21;24.90;99.50
50907;DHT22;36882;27.680;85.304;2022-09-16T14:32:52;25.00;99.30
50907;DHT22;36882;27.680;85.304;2022-09-16T14:35:24;25.00;99.10
50907;DHT22;36882;27.680;85.304;2022-09-16T14:38:00;25.00;98.90
50907;DHT22;36882;27.680;85.304;2022-09-16T14:40:49;25.00;99.00
50907;DHT22;36882;27.680;85.304;2022-09-16T14:43:21;25.00;99.20
50907;DHT22;36882;27.680;85.304;2022-09-16T14:45:55;25.00;99.20
50907;DHT22;36882;27.680;85.304;2022-09-16T14:48:34;24.90;98.70
50907;DHT22;36882;27.680;85.304;2022-09-16T14:51:16;24.90;98.90
50907;DHT22;36882;27.680;85.304;2022-09-16T14:53:56;24.90;99.10
50907;DHT22;36882;27.680;85.304;2022-09-16T14:56:52;24.80;99.30
50907;DHT22;36882;27.680;85.304;2022-09-16T14:59:31;24.80;99.20
50907;DHT22;36882;27.680;85.304;2022-09-16T15:04:58;24.80;99.20
50907;DHT22;36882;27.680;85.304;2022-09-16T15:07:32;24.80;99.50
50907;DHT22;36882;27.680;85.304;2022-09-16T15:10:26;24.80;99.40
50907;DHT22;36882;27.680;85.304;2022-09-16T15:13:20;24.80;99.40
50907;DHT22;36882;27.680;85.304;2022-09-16T15:16:02;24.80;98.80
50907;DHT22;36882;27.680;85.304;2022-09-16T15:18:43;24.80;98.90
50907;DHT22;36882;27.680;85.304;2022-09-16T15:21:25;24.80;99.00
50907;DHT22;36882;27.680;85.304;2022-09-16T15:24:01;24.80;99.10
50907;DHT22;36882;27.680;85.304;2022-09-16T15:26:45;24.90;99.50
50907;DHT22;36882;27.680;85.304;2022-09-16T15:29:34;24.90;99.40
50907;DHT22;36882;27.680;85.304;2022-09-16T15:32:19;24.90;99.40
50907;DHT22;36882;27.680;85.304;2022-09-16T15:35:17;24.80;99.10
50907;DHT22;36882;27.680;85.304;2022-09-16T15:37:49;24.90;99.10
50907;DHT22;36882;27.680;85.304;2022-09-16T15:40:29;24.80;99.10
50907;DHT22;36882;27.680;85.304;2022-09-16T15:43:20;24.80;99.30
50907;DHT22;36882;27.680;85.304;2022-09-16T15:46:21;24.80;98.80
50907;DHT22;36882;27.680;85.304;2022-09-16T15:48:57;24.80;98.80
50907;DHT22;36882;27.680;85.304;2022-09-16T15:51:36;24.80;98.80
50907;DHT22;36882;27.680;85.304;2022-09-16T15:54:18;24.80;98.90
50907;DHT22;36882;27.680;85.304;2022-09-16T15:56:59;24.70;98.80
50907;DHT22;36882;27.680;85.304;2022-09-16T15:59:40;24.70;98.90
50907;DHT22;36882;27.680;85.304;2022-09-16T16:02:20;24.60;99.30
50907;DHT22;36882;27.680;85.304;2022-09-16T16:04:52;24.60;99.50
50907;DHT22;36882;27.680;85.304;2022-09-16T16:07:38;24.50;99.60
50907;DHT22;36882;27.680;85.304;2022-09-16T16:13:00;24.50;99.80
50907;DHT22;36882;27.680;85.304;2022-09-16T16:15:35;24.50;99.90
50907;DHT22;36882;27.680;85.304;2022-09-16T16:18:08;24.40;99.90
50907;DHT22;36882;27.680;85.304;2022-09-16T16:20:39;24.30;99.80
50907;DHT22;36882;27.680;85.304;2022-09-16T16:23:10;24.40;99.90
50907;DHT22;36882;27.680;85.304;2022-09-16T16:25:41;24.40;99.90
50907;DHT22;36882;27.680;85.304;2022-09-16T16:28:12;24.30;99.90
50907;DHT22;36882;27.680;85.304;2022-09-16T16:30:42;24.30;99.90
50907;DHT22;36882;27.680;85.304;2022-09-16T16:33:12;24.30;99.80
50907;DHT22;36882;27.680;85.304;2022-09-16T16:35:43;24.40;99.90
50907;DHT22;36882;27.680;85.304;2022-09-16T16:38:13;24.30;99.80
50907;DHT22;36882;27.680;85.304;2022-09-16T16:40:49;24.30;99.80
50907;DHT22;36882;27.680;85.304;2022-09-16T16:43:20;24.40;99.90
50907;DHT22;36882;27.680;85.304;2022-09-16T16:45:55;24.30;99.90
50907;DHT22;36882;27.680;85.304;2022-09-16T16:48:27;24.20;99.80
50907;DHT22;36882;27.680;85.304;2022-09-16T16:51:00;24.20;99.90
50907;DHT22;36882;27.680;85.304;2022-09-16T16:53:32;24.20;99.90
50907;DHT22;36882;27.680;85.304;2022-09-16T16:56:04;24.20;99.90
50907;DHT22;36882;27.680;85.304;2022-09-16T16:58:40;24.10;99.90
50907;DHT22;36882;27.680;85.304;2022-09-16T17:01:13;24.10;99.90
50907;DHT22;36882;27.680;85.304;2022-09-16T17:03:46;24.10;99.90
50907;DHT22;36882;27.680;85.304;2022-09-16T17:06:20;24.10;99.90
50907;DHT22;36882;27.680;85.304;2022-09-16T17:08:50;24.10;99.90
50907;DHT22;36882;27.680;85.304;2022-09-16T17:11:21;24.20;99.90
50907;DHT22;36882;27.680;85.304;2022-09-16T17:13:57;24.10;99.90
50907;DHT22;36882;27.680;85.304;2022-09-16T17:16:29;24.40;99.90
50907;DHT22;36882;27.680;85.304;2022-09-16T17:19:00;24.20;99.90
50907;DHT22;36882;27.680;85.304;2022-09-16T17:21:33;24.20;99.90
50907;DHT22;36882;27.680;85.304;2022-09-16T17:24:03;24.20;99.90
50907;DHT22;36882;27.680;85.304;2022-09-16T17:26:34;24.20;99.90
50907;DHT22;36882;27.680;85.304;2022-09-16T17:29:05;24.20;99.90
50907;DHT22;36882;27.680;85.304;2022-09-16T17:31:43;24.20;99.90
50907;DHT22;36882;27.680;85.304;2022-09-16T17:34:14;24.20;99.90
50907;DHT22;36882;27.680;85.304;2022-09-16T17:36:46;24.20;99.90
50907;DHT22;36882;27.680;85.304;2022-09-16T17:39:18;24.20;99.90
50907;DHT22;36882;27.680;85.304;2022-09-16T17:41:49;24.20;99.90
50907;DHT22;36882;27.680;85.304;2022-09-16T17:44:20;24.20;99.90
50907;DHT22;36882;27.680;85.304;2022-09-16T17:46:50;24.20;99.90
50907;DHT22;36882;27.680;85.304;2022-09-16T17:49:22;24.20;99.90
50907;DHT22;36882;27.680;85.304;2022-09-16T17:51:53;24.20;99.90
50907;DHT22;36882;27.680;85.304;2022-09-16T17:54:24;24.20;99.90
50907;DHT22;36882;27.680;85.304;2022-09-16T17:56:55;24.20;99.90
50907;DHT22;36882;27.680;85.304;2022-09-16T17:59:25;24.20;99.90
50907;DHT22;36882;27.680;85.304;2022-09-16T18:01:56;24.20;99.90
50907;DHT22;36882;27.680;85.304;2022-09-16T18:04:26;24.10;99.90